createdAt,value
2023-05-01T12:36:09.137Z,18.60
2023-05-01T12:38:36.881Z,19.06
2023-05-01T12:41:07.064Z,18.90
2023-05-01T12:43:36.811Z,18.94
2023-05-01T12:46:06.543Z,19.22
2023-05-01T12:49:06.476Z,18.85
2023-05-01T12:51:34.272Z,18.77
2023-05-01T12:54:22.486Z,18.81
2023-05-01T12:56:50.484Z,19.05
2023-05-01T12:59:22.789Z,19.18
2023-05-01T13:01:57.730Z,18.82
2023-05-01T13:04:26.314Z,18.70
2023-05-01T13:06:55.740Z,18.91
2023-05-01T13:09:27.030Z,19.10
2023-05-01T13:12:02.326Z,18.85
2023-05-01T13:14:31.515Z,18.75
2023-05-01T13:16:59.094Z,18.44
2023-05-01T13:19:28.739Z,18.34
2023-05-01T13:21:57.566Z,18.53
2023-05-01T13:24:37.321Z,18.72
2023-05-01T13:27:05.737Z,18.69
2023-05-01T13:29:33.692Z,18.45
2023-05-01T13:32:01.611Z,18.84
2023-05-01T13:34:31.786Z,18.63
2023-05-01T13:37:00.568Z,18.61
2023-05-01T13:39:29.779Z,18.71
2023-05-01T13:41:57.296Z,18.51
2023-05-01T13:44:24.851Z,18.87
2023-05-01T13:46:52.374Z,18.77
2023-05-01T13:49:22.664Z,19.09
2023-05-01T13:51:50.863Z,19.24
2023-05-01T13:54:19.828Z,19.55
2023-05-01T13:56:48.717Z,19.41
2023-05-01T13:59:17.308Z,19.76
2023-05-01T14:01:46.460Z,19.85
2023-05-01T14:04:17.772Z,19.89
2023-05-01T14:06:47.030Z,19.86
2023-05-01T14:09:17.967Z,19.68
2023-05-01T14:11:47.465Z,19.14
2023-05-01T14:14:18.530Z,19.19
2023-05-01T14:16:50.069Z,19.43
2023-05-01T14:19:18.971Z,19.11
2023-05-01T14:21:46.809Z,19.13
2023-05-01T14:24:17.624Z,19.23
2023-05-01T14:26:46.385Z,19.17
2023-05-01T14:29:22.790Z,19.03
2023-05-01T14:31:50.672Z,18.59
2023-05-01T14:34:19.197Z,18.74
2023-05-01T14:36:46.698Z,19.05
2023-05-01T14:39:15.977Z,19.10
2023-05-01T14:41:43.927Z,18.87
2023-05-01T14:44:16.444Z,18.97
2023-05-01T14:46:49.528Z,18.90
2023-05-01T14:49:19.931Z,18.69
2023-05-01T14:51:47.817Z,18.52
2023-05-01T14:54:16.075Z,18.44
2023-05-01T14:56:44.765Z,18.29
2023-05-01T14:59:12.549Z,18.15
2023-05-01T15:01:40.540Z,18.15
2023-05-01T15:04:10.976Z,18.00
2023-05-01T15:06:38.947Z,17.76
2023-05-01T15:09:06.509Z,17.45
2023-05-01T15:11:34.129Z,17.51
2023-05-01T15:14:02.471Z,17.53
2023-05-01T15:16:31.503Z,17.65
2023-05-01T15:18:59.064Z,17.47
2023-05-01T15:21:27.886Z,17.69
2023-05-01T15:23:55.369Z,17.90
2023-05-01T15:26:22.848Z,17.76
2023-05-01T15:28:50.467Z,17.93
2023-05-01T15:31:19.122Z,18.24
2023-05-01T15:33:46.700Z,18.03
2023-05-01T15:36:14.199Z,17.73
2023-05-01T15:38:43.023Z,17.95
2023-05-01T15:41:10.560Z,17.71
2023-05-01T15:43:38.075Z,17.72
2023-05-01T15:46:05.812Z,17.85
2023-05-01T15:48:52.561Z,17.59
2023-05-01T15:51:20.706Z,17.07
2023-05-01T15:53:49.540Z,17.23
2023-05-01T15:56:17.037Z,16.85
2023-05-01T15:58:44.567Z,16.67
2023-05-01T16:01:12.928Z,15.96
2023-05-01T16:03:44.587Z,15.73
2023-05-01T16:06:13.020Z,15.43
2023-05-01T16:08:40.745Z,15.21
2023-05-01T16:11:11.141Z,14.91
2023-05-01T16:13:39.249Z,14.68
2023-05-01T16:16:09.327Z,14.63
2023-05-01T16:18:37.029Z,14.47
2023-05-01T16:21:04.733Z,14.45
2023-05-01T16:23:32.517Z,14.25
2023-05-01T16:26:00.035Z,14.11
2023-05-01T16:28:28.900Z,14.00
2023-05-01T16:30:56.873Z,13.85
2023-05-01T16:33:24.418Z,13.78
2023-05-01T16:35:51.963Z,13.66
2023-05-01T16:38:20.544Z,13.67
2023-05-01T16:40:48.969Z,13.55
2023-05-01T16:43:16.481Z,13.61
2023-05-01T16:45:46.792Z,13.51
2023-05-01T16:48:20.679Z,13.45
2023-05-01T16:50:48.182Z,13.38
2023-05-01T16:53:16.168Z,13.48
2023-05-01T16:55:43.657Z,13.43
2023-05-01T16:58:11.229Z,14.41
2023-05-01T17:00:38.774Z,15.40
2023-05-01T17:03:07.816Z,15.34
2023-05-01T17:05:35.415Z,15.66
2023-05-01T17:08:03.222Z,15.94
2023-05-01T17:10:31.515Z,15.65
2023-05-01T17:12:59.052Z,15.81
2023-05-01T17:15:27.306Z,14.81
2023-05-01T17:17:54.905Z,14.37
2023-05-01T17:20:24.666Z,14.08
2023-05-01T17:22:52.204Z,13.88
2023-05-01T17:25:19.656Z,13.76
2023-05-01T17:27:47.181Z,13.43
2023-05-01T17:30:15.128Z,13.34
2023-05-01T17:32:42.956Z,13.12
2023-05-01T17:35:10.870Z,13.19
2023-05-01T17:37:40.360Z,13.15
2023-05-01T17:40:10.918Z,13.09
2023-05-01T17:42:38.489Z,13.12
2023-05-01T17:45:07.516Z,13.00
2023-05-01T17:47:35.150Z,13.00
2023-05-01T17:50:04.553Z,13.05
2023-05-01T17:52:32.101Z,13.00
2023-05-01T17:55:00.939Z,12.97
2023-05-01T17:57:28.489Z,12.97
2023-05-01T17:59:56.751Z,12.85
2023-05-01T18:02:25.258Z,12.85
2023-05-01T18:04:53.816Z,12.89
2023-05-01T18:07:21.388Z,12.82
2023-05-01T18:09:48.859Z,12.95
2023-05-01T18:12:17.703Z,12.98
2023-05-01T18:14:45.291Z,13.10
2023-05-01T18:17:12.895Z,13.13
2023-05-01T18:19:40.476Z,13.07
2023-05-01T18:22:08.559Z,12.94
2023-05-01T18:24:36.046Z,14.05
2023-05-01T18:27:03.777Z,14.79
2023-05-01T18:29:32.595Z,13.97
2023-05-01T18:32:00.207Z,13.67
2023-05-01T18:34:27.957Z,13.39
2023-05-01T18:36:55.499Z,13.36
2023-05-01T18:39:23.168Z,13.19
2023-05-01T18:41:51.096Z,13.11
2023-05-01T18:44:18.938Z,12.68
2023-05-01T18:46:47.868Z,12.46
2023-05-01T18:49:15.394Z,12.42
2023-05-01T18:51:42.978Z,12.51
2023-05-01T18:54:10.536Z,12.44
2023-05-01T18:56:38.032Z,12.52
2023-05-01T18:59:06.065Z,12.71
2023-05-01T19:01:33.616Z,12.46
2023-05-01T19:04:02.462Z,12.62
2023-05-01T19:06:30.036Z,13.96
2023-05-01T19:08:57.818Z,14.59
2023-05-01T19:11:27.416Z,14.48
2023-05-01T19:13:54.913Z,15.06
2023-05-01T19:16:22.511Z,14.62
2023-05-01T19:18:50.042Z,14.04
2023-05-01T19:21:19.525Z,13.72
2023-05-01T19:23:47.983Z,14.49
2023-05-01T19:26:15.914Z,15.17
2023-05-01T19:28:43.477Z,15.48
2023-05-01T19:31:13.792Z,15.57
2023-05-01T19:33:42.152Z,15.62
2023-05-01T19:36:09.678Z,15.22
2023-05-01T19:38:38.525Z,14.63
2023-05-01T19:41:06.132Z,14.52
2023-05-01T19:43:34.217Z,14.44
2023-05-01T19:46:01.775Z,14.38
2023-05-01T19:48:29.361Z,14.32
2023-05-01T19:50:56.937Z,14.14
2023-05-01T19:53:24.451Z,14.12
2023-05-01T19:55:53.451Z,13.97
2023-05-01T19:58:20.951Z,13.80
2023-05-01T20:00:48.480Z,13.71
2023-05-01T20:03:16.491Z,13.66
2023-05-01T20:05:44.054Z,14.26
2023-05-01T20:08:12.677Z,15.00
2023-05-01T20:10:40.177Z,15.25
2023-05-01T20:13:10.607Z,15.67
2023-05-01T20:15:39.046Z,15.10
2023-05-01T20:18:07.172Z,14.30
2023-05-01T20:20:34.987Z,13.88
2023-05-01T20:23:11.000Z,13.62
2023-05-01T20:25:38.575Z,13.50
2023-05-01T20:28:07.195Z,13.38
2023-05-01T20:30:38.131Z,13.30
2023-05-01T20:33:06.127Z,13.19
2023-05-01T20:35:34.643Z,12.77
2023-05-01T20:38:02.691Z,12.47
2023-05-01T20:40:30.425Z,12.48
2023-05-01T20:42:59.378Z,12.44
2023-05-01T20:45:27.014Z,12.18
2023-05-01T20:47:56.086Z,12.02
2023-05-01T20:50:23.752Z,12.05
2023-05-01T20:52:52.443Z,12.07
2023-05-01T20:55:20.316Z,11.97
2023-05-01T20:57:47.987Z,11.88
2023-05-01T21:00:16.192Z,11.87
2023-05-01T21:02:43.998Z,12.03
2023-05-01T21:05:13.755Z,12.29
2023-05-01T21:07:41.440Z,13.62
2023-05-01T21:10:11.599Z,14.73
2023-05-01T21:12:39.952Z,15.29
2023-05-01T21:15:08.692Z,14.32
2023-05-01T21:17:38.214Z,13.68
2023-05-01T21:20:11.044Z,13.39
2023-05-01T21:22:41.328Z,13.09
2023-05-01T21:25:09.793Z,13.06
2023-05-01T21:27:40.491Z,12.88
2023-05-01T21:30:09.290Z,12.87
2023-05-01T21:32:40.875Z,12.76
2023-05-01T21:35:09.822Z,12.00
2023-05-01T21:37:37.784Z,11.72
2023-05-01T21:40:08.680Z,11.53
2023-05-01T21:42:38.667Z,11.71
2023-05-01T21:45:08.165Z,12.11
2023-05-01T21:47:38.289Z,12.09
2023-05-01T21:50:07.347Z,12.10
2023-05-01T21:52:35.435Z,12.18
2023-05-01T21:55:04.209Z,12.12
2023-05-01T21:57:33.138Z,12.43
2023-05-01T22:00:01.626Z,13.88
2023-05-01T22:02:31.980Z,14.58
2023-05-01T22:04:59.522Z,14.09
2023-05-01T22:07:27.013Z,13.22
2023-05-01T22:09:54.635Z,12.79
2023-05-01T22:12:22.155Z,12.66
2023-05-01T22:14:51.014Z,12.45
2023-05-01T22:17:24.277Z,12.44
2023-05-01T22:19:52.271Z,12.29
2023-05-01T22:22:20.008Z,12.18
2023-05-01T22:24:47.596Z,11.90
2023-05-01T22:27:15.834Z,11.62
2023-05-01T22:29:43.414Z,11.47
2023-05-01T22:32:12.307Z,11.71
2023-05-01T22:34:39.852Z,11.89
2023-05-01T22:37:07.682Z,11.59
2023-05-01T22:39:36.214Z,11.78
2023-05-01T22:42:03.891Z,12.01
2023-05-01T22:44:31.903Z,12.14
2023-05-01T22:47:00.241Z,13.24
2023-05-01T22:49:29.683Z,13.27
2023-05-01T22:51:57.487Z,12.77
2023-05-01T22:54:25.213Z,12.20
2023-05-01T22:56:52.766Z,12.33
2023-05-01T22:59:21.326Z,12.18
2023-05-01T23:01:49.006Z,12.01
2023-05-01T23:04:16.984Z,12.05
2023-05-01T23:06:46.189Z,12.04
2023-05-01T23:09:13.985Z,12.01
2023-05-01T23:11:42.226Z,11.91
2023-05-01T23:14:10.444Z,12.01
2023-05-01T23:16:43.024Z,12.04
2023-05-01T23:19:20.288Z,12.06
2023-05-01T23:21:49.987Z,12.00
2023-05-01T23:24:19.410Z,12.07
2023-05-01T23:26:47.165Z,12.12
2023-05-01T23:29:15.938Z,12.05
2023-05-01T23:31:48.625Z,12.09
2023-05-01T23:34:17.773Z,12.12
2023-05-01T23:36:47.398Z,12.07
2023-05-01T23:39:16.679Z,12.06
2023-05-01T23:41:44.397Z,12.05
2023-05-01T23:44:12.104Z,12.09
2023-05-01T23:46:40.059Z,12.14
2023-05-01T23:49:07.855Z,12.14
2023-05-01T23:51:35.560Z,12.14
2023-05-01T23:54:04.228Z,12.04
2023-05-01T23:56:33.114Z,12.00
2023-05-01T23:59:00.681Z,12.00
